This is the latest recevied weather packets stored in our database for station/object N5CSU. If no packets are shown the sender has not sent any weather packets the latest 1 day(s).
| Time | Temp. | Humidity | Pressure | Rain* | Wind** | Luminosity | Snow |
|---|---|---|---|---|---|---|---|
| 1778081301 | 12.78° C | 89% | 1014.8 hPa | 0 mm | - | 6 W/m² | - |
| 1778080998 | 12.78° C | 85% | 1015.9 hPa | 0 mm | - | 3 W/m² | - |
| 1778080697 | 12.78° C | 85% | 1016.4 hPa | 0 mm | - | 2 W/m² | - |
| 1778080393 | 13.33° C | 85% | 1016.4 hPa | 0 mm | - | 2 W/m² | - |
| 1778080090 | 13.33° C | 85% | 1015.9 hPa | 0 mm | - | 3 W/m² | - |
| 1778079484 | 13.33° C | 85% | 1015.2 hPa | 0 mm | - | 7 W/m² | - |
| 1778079180 | 12.78° C | 86% | 1015 hPa | 0 mm | - | 6 W/m² | - |
| 1778078878 | 12.78° C | 85% | 1015.1 hPa | 0 mm | - | 4 W/m² | - |
| 1778077969 | 12.78° C | 84% | 1014.6 hPa | 0 mm | - | 5 W/m² | - |
| 1778077668 | 12.78° C | 84% | 1014.9 hPa | 0 mm | - | 4 W/m² | - |
| 1778077366 | 12.78° C | 84% | 1014.4 hPa | 0 mm | - | 5 W/m² | - |
| 1778074942 | 12.78° C | 83% | 1014.2 hPa | 0 mm | - | 4 W/m² | - |
| 1778074033 | 12.78° C | 83% | 1014 hPa | 0 mm | - | 4 W/m² | - |
| 1778073428 | 13.33° C | 82% | 1013.4 hPa | 0 mm | - | 3 W/m² | - |
| 1778071913 | 13.33° C | 82% | 1013.6 hPa | 0 mm | - | 3 W/m² | - |
| 1778071309 | 13.89° C | 81% | 1013.2 hPa | 0 mm | - | 3 W/m² | - |
| 1778071006 | 13.89° C | 81% | 1013 hPa | 0 mm | - | 2 W/m² | - |
| 1778070401 | 13.89° C | 81% | 1013 hPa | 0 mm | - | 2 W/m² | - |
| 1778069796 | 13.89° C | 80% | 1012.8 hPa | 0 mm | - | 1 W/m² | - |
| 1778069492 | 13.89° C | 80% | 1012.7 hPa | 0 mm | - | 1 W/m² | - |
| 1778068887 | 13.89° C | 80% | 1013 hPa | 0 mm | - | 0 W/m² | - |
| 1778068586 | 13.89° C | 79% | 1012.9 hPa | 0 mm | - | 0 W/m² | - |
| 1778066770 | 14.44° C | 78% | 1012.2 hPa | 0 mm | - | 0 W/m² | - |
| 1778066165 | 14.44° C | 78% | 1012.1 hPa | 0 mm | - | 0 W/m² | - |
| 1778065560 | 14.44° C | 79% | 1011.8 hPa | 0 mm | - | 0 W/m² | - |
* Rain latest hour (hover to see other rain measurements)
** Current wind speed in m/s (hover to see current wind gust speed)